Time;durP1;ratioP1;P1;durP2;ratioP2;P2;SDS_P1;SDS_P2;PMS_P1;PMS_P2;Temp;Humidity;BMP_temperature;BMP_pressure;BME280_temperature;BME280_humidity;BME280_pressure;Samples;Min_cycle;Max_cycle;Signal;HPM_P1;HPM_P2
2023/05/03 00:00:50;;;;;;;3.65;1.65;;;8.80;99.90;;;;;;4948196;28;20146;-84
2023/05/03 00:03:16;;;;;;;6.47;1.92;;;9.30;99.90;;;;;;4960898;28;20078;-84
2023/05/03 00:05:42;;;;;;;4.72;1.73;;;9.10;99.90;;;;;;4956273;28;20122;-85
2023/05/03 00:08:07;;;;;;;3.50;1.60;;;9.10;99.90;;;;;;4947161;28;20327;-84
2023/05/03 00:10:33;;;;;;;7.28;2.22;;;9.40;99.90;;;;;;4983016;28;20058;-86
2023/05/03 00:13:00;;;;;;;4.82;1.70;;;7.30;99.90;;;;;;4975429;28;20046;-83
2023/05/03 00:15:26;;;;;;;6.05;1.73;;;7.00;99.90;;;;;;4960502;28;20488;-84
2023/05/03 00:17:51;;;;;;;2.58;1.52;;;7.00;99.90;;;;;;4961082;28;20059;-82
2023/05/03 00:20:21;;;;;;;3.55;1.80;;;6.90;99.90;;;;;;4946566;28;20070;-83
2023/05/03 00:22:47;;;;;;;3.00;2.13;;;8.40;99.90;;;;;;4963723;28;20816;-86
2023/05/03 00:25:14;;;;;;;6.93;2.20;;;;;;;;;;4949088;28;20069;-83
2023/05/03 00:27:41;;;;;;;5.90;2.15;;;6.90;99.90;;;;;;4955510;28;20302;-82
2023/05/03 00:30:08;;;;;;;3.65;1.55;;;7.00;99.90;;;;;;4947133;28;20054;-84
2023/05/03 00:32:34;;;;;;;3.95;1.80;;;6.90;99.90;;;;;;4946705;28;20510;-84
2023/05/03 00:35:00;;;;;;;6.50;2.03;;;8.80;99.90;;;;;;4940366;28;20059;-85
2023/05/03 00:37:25;;;;;;;8.80;2.15;;;8.40;99.90;;;;;;4954653;28;20130;-84
2023/05/03 00:39:54;;;;;;;3.05;1.73;;;8.60;99.90;;;;;;4953332;28;20171;-84
2023/05/03 00:42:22;;;;;;;3.20;1.70;;;6.70;99.90;;;;;;4951677;28;20500;-85
2023/05/03 00:44:49;;;;;;;5.25;2.10;;;6.80;99.90;;;;;;4921910;28;20051;-81
2023/05/03 00:47:16;;;;;;;5.57;1.80;;;6.80;99.90;;;;;;4943279;28;20046;-86
2023/05/03 00:49:44;;;;;;;4.13;1.67;;;6.70;99.90;;;;;;4916508;28;20051;-84
2023/05/03 00:52:15;;;;;;;3.90;1.98;;;6.90;99.90;;;;;;4941508;28;20085;-86
2023/05/03 00:54:42;;;;;;;4.60;2.67;;;6.80;99.90;;;;;;4951608;28;20059;-87
2023/05/03 00:57:09;;;;;;;4.22;2.03;;;6.80;99.90;;;;;;4933375;28;20078;-83
2023/05/03 00:59:43;;;;;;;4.32;1.60;;;6.80;99.90;;;;;;4943003;28;20069;-85
2023/05/03 01:02:27;;;;;;;3.20;1.67;;;8.60;99.90;;;;;;4928786;28;20051;-84
2023/05/03 01:04:55;;;;;;;6.47;1.92;;;8.50;99.90;;;;;;4947369;28;21077;-85
2023/05/03 01:07:41;;;;;;;5.95;1.85;;;6.70;99.90;;;;;;4954701;28;20050;-84
2023/05/03 01:10:20;;;;;;;2.72;1.63;;;7.20;99.90;;;;;;4932567;28;20082;-85
2023/05/03 01:13:07;;;;;;;2.58;1.27;;;6.80;99.90;;;;;;4926988;28;20099;-85
2023/05/03 01:15:52;;;;;;;2.13;1.20;;;6.90;99.90;;;;;;4931720;28;20069;-85
2023/05/03 01:18:22;;;;;;;5.30;1.45;;;6.80;99.90;;;;;;4930736;28;20059;-86
2023/05/03 01:20:50;;;;;;;4.25;1.35;;;6.70;99.90;;;;;;4917556;28;20063;-85
2023/05/03 01:23:39;;;;;;;4.05;1.48;;;6.80;99.90;;;;;;4932949;28;20075;-87
2023/05/03 01:26:34;;;;;;;5.43;1.58;;;6.80;99.90;;;;;;4931373;28;20102;-83
2023/05/03 01:29:00;;;;;;;4.95;2.08;;;6.70;99.90;;;;;;4908337;28;20486;-85
2023/05/03 01:31:32;;;;;;;7.30;1.83;;;6.70;99.90;;;;;;4930659;28;20055;-84
2023/05/03 01:34:15;;;;;;;5.68;1.00;;;6.40;99.90;;;;;;4933836;28;20055;-85
2023/05/03 01:36:46;;;;;;;4.32;1.40;;;6.70;99.90;;;;;;4949244;28;20061;-85
2023/05/03 01:39:20;;;;;;;3.22;1.40;;;7.90;99.90;;;;;;4955123;28;20055;-83
2023/05/03 01:41:49;;;;;;;4.97;1.15;;;8.00;99.90;;;;;;4916080;28;20058;-85
2023/05/03 01:44:15;;;;;;;9.73;1.63;;;7.80;99.90;;;;;;4937522;28;20054;-85
2023/05/03 01:46:45;;;;;;;3.13;1.20;;;6.80;99.90;;;;;;4925016;28;20051;-86
2023/05/03 01:49:11;;;;;;;6.57;1.67;;;6.80;99.90;;;;;;4954664;28;20061;-83
2023/05/03 01:51:37;;;;;;;3.58;1.33;;;6.80;99.90;;;;;;4941706;28;20114;-83
2023/05/03 01:54:04;;;;;;;5.88;1.63;;;8.40;99.90;;;;;;4952178;28;20051;-82
2023/05/03 01:56:30;;;;;;;3.55;1.77;;;6.90;99.90;;;;;;4933679;28;20043;-84
2023/05/03 01:58:59;;;;;;;1.90;1.40;;;7.30;99.90;;;;;;4942792;28;20059;-84
2023/05/03 02:01:26;;;;;;;6.35;1.33;;;6.70;99.90;;;;;;4956859;28;20055;-83
2023/05/03 02:03:52;;;;;;;2.38;1.20;;;6.80;99.90;;;;;;4921584;28;20070;-84
2023/05/03 02:06:17;;;;;;;4.72;1.40;;;8.60;99.90;;;;;;4954796;28;20046;-83
2023/05/03 02:08:43;;;;;;;2.42;1.10;;;8.20;99.90;;;;;;4939610;28;20085;-83
2023/05/03 02:11:08;;;;;;;1.20;1.00;;;8.70;99.90;;;;;;4940127;28;20050;-83
2023/05/03 02:13:36;;;;;;;3.83;1.45;;;9.10;99.90;;;;;;4959191;28;20110;-83
2023/05/03 02:16:01;;;;;;;3.78;1.38;;;7.50;99.90;;;;;;4931685;28;20047;-83
2023/05/03 02:18:30;;;;;;;4.70;1.50;;;6.60;99.90;;;;;;4953111;28;20496;-83
2023/05/03 02:20:56;;;;;;;4.07;1.30;;;6.70;99.90;;;;;;4941194;28;20051;-82
2023/05/03 02:23:22;;;;;;;3.85;1.25;;;8.60;99.90;;;;;;4943606;28;20114;-84
2023/05/03 02:25:48;;;;;;;4.97;1.45;;;7.50;99.90;;;;;;4947080;28;20059;-81
2023/05/03 02:28:17;;;;;;;1.33;1.02;;;6.30;99.90;;;;;;4948023;28;20079;-83
2023/05/03 02:30:42;;;;;;;5.25;1.08;;;8.30;99.90;;;;;;4925931;28;20493;-82
2023/05/03 02:33:09;;;;;;;2.90;1.13;;;8.20;99.90;;;;;;4917663;28;20144;-83
2023/05/03 02:35:36;;;;;;;1.77;1.00;;;7.20;99.90;;;;;;4934417;28;20138;-85
2023/05/03 02:38:02;;;;;;;5.55;1.40;;;8.60;99.90;;;;;;4948970;28;20074;-83
2023/05/03 02:40:27;;;;;;;4.00;1.00;;;8.10;99.90;;;;;;4945861;28;20460;-85
2023/05/03 02:42:53;;;;;;;1.75;1.20;;;9.10;99.90;;;;;;4933388;28;20102;-84
2023/05/03 02:45:19;;;;;;;6.40;1.58;;;6.50;99.90;;;;;;4966955;28;20048;-84
2023/05/03 02:47:45;;;;;;;7.50;1.40;;;6.30;99.90;;;;;;4961986;28;20043;-84
2023/05/03 02:50:11;;;;;;;5.80;1.35;;;4.70;99.90;;;;;;4962268;28;20060;-84
2023/05/03 02:52:36;;;;;;;3.55;1.05;;;8.40;99.90;;;;;;4967737;28;20046;-85
2023/05/03 02:55:05;;;;;;;3.90;1.35;;;8.40;99.90;;;;;;4968427;28;20069;-84
2023/05/03 02:57:31;;;;;;;3.95;1.30;;;6.50;99.90;;;;;;4964570;28;20487;-83
2023/05/03 02:59:59;;;;;;;2.90;1.65;;;6.50;99.90;;;;;;4970573;28;20048;-83
2023/05/03 03:02:26;;;;;;;4.15;1.08;;;6.50;99.90;;;;;;4968238;28;20047;-84
2023/05/03 03:04:52;;;;;;;4.88;1.25;;;8.30;99.90;;;;;;4958123;28;20058;-84
2023/05/03 03:07:18;;;;;;;4.70;1.55;;;7.80;99.90;;;;;;4977544;28;20057;-84
2023/05/03 03:09:44;;;;;;;4.38;1.20;;;8.40;99.90;;;;;;4975233;28;20051;-84
2023/05/03 03:12:09;;;;;;;3.75;1.08;;;6.50;99.90;;;;;;4979880;28;20043;-84
2023/05/03 03:14:45;;;;;;;4.70;1.42;;;5.50;99.90;;;;;;4975012;28;20143;-84
2023/05/03 03:17:11;;;;;;;2.53;1.42;;;9.50;99.90;;;;;;4974332;28;20506;-85
2023/05/03 03:19:37;;;;;;;3.63;1.23;;;6.20;99.90;;;;;;4999301;28;20138;-85
2023/05/03 03:22:03;;;;;;;3.13;1.17;;;6.60;99.90;;;;;;4980400;28;20125;-83
2023/05/03 03:24:28;;;;;;;1.63;0.93;;;8.60;99.90;;;;;;4977636;28;20105;-85
2023/05/03 03:26:54;;;;;;;1.77;1.10;;;6.60;99.90;;;;;;4973346;28;20456;-83
2023/05/03 03:29:20;;;;;;;3.85;1.38;;;6.60;99.90;;;;;;4971806;28;20142;-86
2023/05/03 03:31:45;;;;;;;3.83;0.90;;;6.90;99.90;;;;;;4959575;28;20104;-83
2023/05/03 03:34:11;;;;;;;1.75;1.00;;;6.60;99.90;;;;;;4956764;28;20427;-84
2023/05/03 03:36:38;;;;;;;1.55;0.68;;;9.20;99.90;;;;;;4962425;28;20140;-84
2023/05/03 03:39:06;;;;;;;2.65;1.17;;;9.20;99.90;;;;;;4939189;28;20142;-84
2023/05/03 03:41:35;;;;;;;2.83;1.20;;;6.90;99.90;;;;;;4947478;28;20137;-83
2023/05/03 03:44:01;;;;;;;3.22;1.02;;;7.60;99.90;;;;;;4973675;28;20130;-83
2023/05/03 03:46:27;;;;;;;4.28;0.93;;;9.00;99.90;;;;;;4977273;28;20134;-83
2023/05/03 03:48:53;;;;;;;2.00;0.90;;;7.20;99.90;;;;;;4957259;28;20478;-83
2023/05/03 03:51:19;;;;;;;4.05;0.98;;;8.30;99.90;;;;;;4976071;28;20085;-82
2023/05/03 03:53:44;;;;;;;1.30;0.77;;;8.70;99.90;;;;;;4959641;28;20098;-84
2023/05/03 03:56:10;;;;;;;2.90;0.95;;;9.20;99.90;;;;;;4957545;28;20059;-82
2023/05/03 03:58:36;;;;;;;3.75;1.80;;;6.60;99.90;;;;;;4972084;28;20054;-84
2023/05/03 04:01:01;;;;;;;2.15;0.77;;;6.70;99.90;;;;;;4933161;28;20059;-84
2023/05/03 04:03:28;;;;;;;4.85;1.33;;;6.50;99.90;;;;;;4950803;28;20051;-84
2023/05/03 04:05:54;;;;;;;2.50;1.35;;;6.60;99.90;;;;;;4951578;28;20051;-84
2023/05/03 04:08:23;;;;;;;4.72;0.95;;;9.10;99.90;;;;;;4926438;28;20065;-84
2023/05/03 04:10:50;;;;;;;3.08;1.30;;;6.60;99.90;;;;;;4960959;28;20484;-85
2023/05/03 04:13:16;;;;;;;5.03;1.20;;;6.70;99.90;;;;;;4936211;28;20046;-84
2023/05/03 04:15:42;;;;;;;3.45;1.48;;;6.60;99.90;;;;;;4966282;28;20046;-89
2023/05/03 04:18:08;;;;;;;7.47;1.13;;;6.60;99.90;;;;;;4964817;28;20050;-84
2023/05/03 04:20:34;;;;;;;3.15;1.25;;;6.60;99.90;;;;;;4965727;28;20063;-84
2023/05/03 04:23:00;;;;;;;3.33;1.10;;;6.60;99.90;;;;;;4986123;28;20046;-84
2023/05/03 04:25:26;;;;;;;3.78;1.50;;;9.20;99.90;;;;;;4952771;28;20055;-85
2023/05/03 04:27:52;;;;;;;2.28;1.25;;;6.70;99.90;;;;;;4932676;28;20106;-84
2023/05/03 04:30:18;;;;;;;2.40;0.68;;;8.50;99.90;;;;;;4932991;28;20059;-84
2023/05/03 04:32:44;;;;;;;4.57;1.23;;;6.70;99.90;;;;;;4948137;28;20050;-83
2023/05/03 04:35:11;;;;;;;1.75;1.02;;;8.20;99.90;;;;;;4945139;28;20105;-85
2023/05/03 04:37:37;;;;;;;8.15;1.35;;;8.00;99.90;;;;;;4955544;28;20047;-84
2023/05/03 04:40:08;;;;;;;2.38;1.00;;;6.50;99.90;;;;;;4927458;28;20078;-83
2023/05/03 04:42:35;;;;;;;2.22;1.15;;;6.80;99.90;;;;;;4933945;28;20059;-84
2023/05/03 04:45:05;;;;;;;3.00;1.08;;;8.00;99.90;;;;;;4932871;28;20067;-84
2023/05/03 04:47:31;;;;;;;3.15;1.27;;;7.60;99.90;;;;;;4921941;28;20186;-87
2023/05/03 04:49:57;;;;;;;2.28;0.60;;;6.80;99.90;;;;;;4934011;28;20447;-85
2023/05/03 04:52:24;;;;;;;2.88;0.75;;;8.30;99.90;;;;;;4945215;28;20507;-84
2023/05/03 04:54:53;;;;;;;2.75;0.80;;;6.80;99.90;;;;;;4947727;28;20132;-84
2023/05/03 04:57:20;;;;;;;9.27;5.50;;;6.80;99.90;;;;;;4934427;28;20112;-86
2023/05/03 04:59:45;;;;;;;7.97;2.50;;;6.90;99.90;;;;;;4918895;28;20055;-84
2023/05/03 05:02:14;;;;;;;4.65;1.40;;;6.90;99.90;;;;;;4918113;28;20072;-87
2023/05/03 05:04:43;;;;;;;3.97;0.90;;;6.80;99.90;;;;;;4951707;28;20058;-84
2023/05/03 05:07:08;;;;;;;1.50;0.40;;;9.20;99.90;;;;;;4921902;28;20097;-86
2023/05/03 05:09:35;;;;;;;5.28;0.90;;;6.90;99.90;;;;;;4952158;28;20051;-85
2023/05/03 05:12:02;;;;;;;1.92;0.50;;;6.80;99.90;;;;;;4925179;28;20047;-85
2023/05/03 05:14:30;;;;;;;1.05;0.43;;;6.90;99.90;;;;;;4932404;28;20558;-84
2023/05/03 05:16:55;;;;;;;3.58;0.65;;;8.60;99.90;;;;;;4919487;28;20050;-85
2023/05/03 05:19:21;;;;;;;3.83;1.00;;;8.80;99.90;;;;;;4949390;28;20055;-84
2023/05/03 05:21:47;;;;;;;4.78;0.52;;;5.30;99.90;;;;;;4933516;28;20076;-83
2023/05/03 05:24:13;;;;;;;2.58;0.80;;;7.00;99.90;;;;;;4935550;28;20539;-87
2023/05/03 05:26:40;;;;;;;1.98;0.52;;;7.80;99.90;;;;;;4933664;28;20085;-85
2023/05/03 05:29:06;;;;;;;2.30;0.63;;;7.10;99.90;;;;;;4955181;28;20051;-86
2023/05/03 05:31:33;;;;;;;1.95;0.63;;;7.10;99.90;;;;;;4962166;28;20147;-85
2023/05/03 05:33:59;;;;;;;3.45;1.05;;;7.10;99.90;;;;;;4966814;28;20042;-84
2023/05/03 05:36:25;;;;;;;1.63;0.50;;;7.10;99.90;;;;;;4975972;28;20542;-87
2023/05/03 05:38:54;;;;;;;2.80;0.82;;;7.20;99.90;;;;;;4956164;28;20055;-88
2023/05/03 05:41:20;;;;;;;7.22;1.00;;;9.30;99.90;;;;;;4934093;28;20053;-84
2023/05/03 05:43:45;;;;;;;4.40;0.80;;;8.10;99.90;;;;;;4925692;28;20043;-86
2023/05/03 05:46:11;;;;;;;4.38;0.95;;;8.10;99.90;;;;;;4936988;28;20070;-83
2023/05/03 05:48:37;;;;;;;2.30;0.90;;;9.30;99.90;;;;;;4926291;28;20047;-84
2023/05/03 05:51:03;;;;;;;0.85;0.57;;;7.40;99.90;;;;;;4950962;28;20813;-85
2023/05/03 05:53:29;;;;;;;5.15;1.60;;;7.40;99.90;;;;;;4931920;28;20134;-85
2023/05/03 05:55:55;;;;;;;11.15;6.50;;;9.80;99.90;;;;;;4933015;28;20509;-84
2023/05/03 05:58:20;;;;;;;6.60;2.13;;;7.40;99.90;;;;;;4948537;28;20518;-84
2023/05/03 06:00:47;;;;;;;5.22;1.60;;;8.10;99.90;;;;;;4950626;28;20079;-84
2023/05/03 06:03:14;;;;;;;3.78;0.95;;;7.50;99.90;;;;;;4947333;28;20051;-83
2023/05/03 06:05:40;;;;;;;0.80;0.40;;;7.40;99.90;;;;;;4958208;28;20461;-85
2023/05/03 06:08:06;;;;;;;2.05;0.65;;;7.50;99.90;;;;;;4954262;28;20726;-82
2023/05/03 06:10:32;;;;;;;6.32;0.55;;;7.70;99.90;;;;;;4943805;28;20130;-83
2023/05/03 06:12:58;;;;;;;1.85;0.75;;;9.30;99.90;;;;;;4957167;28;20054;-83
2023/05/03 06:15:24;;;;;;;1.38;0.38;;;8.10;99.90;;;;;;4950495;28;20078;-84
2023/05/03 06:17:50;;;;;;;4.78;0.70;;;7.70;99.90;;;;;;4951401;28;20074;-82
2023/05/03 06:20:17;;;;;;;4.78;0.47;;;7.60;99.90;;;;;;4936020;28;20947;-84
2023/05/03 06:22:43;;;;;;;1.90;0.52;;;9.90;99.90;;;;;;4932831;28;20083;-84
2023/05/03 06:25:09;;;;;;;2.65;0.47;;;9.20;99.90;;;;;;4949217;28;20138;-83
2023/05/03 06:27:37;;;;;;;1.08;0.30;;;7.80;99.90;;;;;;4935189;28;20106;-84
2023/05/03 06:30:02;;;;;;;2.50;0.40;;;9.20;99.90;;;;;;4919349;28;20058;-83
2023/05/03 06:32:32;;;;;;;3.97;0.60;;;8.00;99.90;;;;;;4931224;28;20478;-82
2023/05/03 06:35:00;;;;;;;0.90;0.20;;;7.60;99.90;;;;;;4938768;28;20054;-83
2023/05/03 06:37:29;;;;;;;8.68;0.50;;;9.80;99.90;;;;;;4948105;28;20051;-83
2023/05/03 06:39:54;;;;;;;2.35;0.40;;;9.60;99.90;;;;;;4957563;28;20451;-85
2023/05/03 06:42:21;;;;;;;3.20;0.52;;;8.90;99.90;;;;;;4962110;28;20134;-85
2023/05/03 06:44:47;;;;;;;3.60;0.50;;;10.30;99.90;;;;;;4970358;28;20051;-84
2023/05/03 06:47:13;;;;;;;1.42;0.50;;;8.20;99.90;;;;;;4971226;28;20043;-84
2023/05/03 06:49:48;;;;;;;4.03;0.55;;;9.10;99.90;;;;;;4953802;28;20058;-84
2023/05/03 06:52:13;;;;;;;5.22;0.57;;;8.30;99.90;;;;;;4960162;28;20058;-85
2023/05/03 06:54:43;;;;;;;2.33;0.47;;;8.30;99.90;;;;;;4970474;28;20043;-85
2023/05/03 06:57:20;;;;;;;6.43;0.50;;;10.50;99.90;;;;;;4975793;28;20494;-82
2023/05/03 07:00:06;;;;;;;1.42;0.30;;;8.20;99.90;;;;;;4274341;28;10000690;-86
2023/05/03 07:02:36;;;;;;;4.00;0.75;;;8.40;99.90;;;;;;4966974;28;20158;-86
2023/05/03 07:05:02;;;;;;;3.90;0.68;;;;;;;;;;4967589;28;20555;-86
2023/05/03 07:07:28;;;;;;;2.95;0.65;;;8.50;99.90;;;;;;4974164;28;20055;-82
2023/05/03 07:09:59;;;;;;;2.15;0.65;;;8.50;99.90;;;;;;4979211;28;20062;-82
2023/05/03 07:12:27;;;;;;;43.33;3.13;;;10.60;99.90;;;;;;4949289;28;20090;-82
2023/05/03 07:14:53;;;;;;;19.45;2.80;;;8.70;99.90;;;;;;4967148;28;20130;-83
2023/05/03 07:17:20;;;;;;;14.15;1.27;;;9.20;99.90;;;;;;4959751;28;20163;-86
2023/05/03 07:19:47;;;;;;;122.28;8.18;;;8.70;99.90;;;;;;4956444;28;20070;-89
2023/05/03 07:22:13;;;;;;;26.42;1.98;;;8.40;99.90;;;;;;4951179;28;20122;-80
2023/05/03 07:24:39;;;;;;;10.48;0.68;;;9.10;99.90;;;;;;4957151;28;20062;-82
2023/05/03 07:27:06;;;;;;;5.93;0.50;;;9.10;99.90;;;;;;4963832;28;20047;-83
2023/05/03 07:29:37;;;;;;;17.80;1.23;;;10.20;99.90;;;;;;4975880;28;20050;-80
2023/05/03 07:32:03;;;;;;;13.93;1.60;;;9.30;99.90;;;;;;4973513;28;20055;-82
2023/05/03 07:34:31;;;;;;;15.20;1.70;;;9.30;99.90;;;;;;4958237;28;20043;-84
2023/05/03 07:36:57;;;;;;;5.30;0.50;;;10.80;99.90;;;;;;4964863;28;20486;-80
2023/05/03 07:39:22;;;;;;;4.18;0.65;;;7.50;99.90;;;;;;4962974;28;20057;-81
2023/05/03 07:41:48;;;;;;;3.63;0.40;;;9.40;99.90;;;;;;4962555;28;20054;-82
2023/05/03 07:44:14;;;;;;;3.78;0.55;;;9.40;99.90;;;;;;4957029;28;20289;-85
2023/05/03 07:46:40;;;;;;;1.77;0.30;;;9.40;99.90;;;;;;4954569;28;20423;-80
2023/05/03 07:49:06;;;;;;;1.42;0.47;;;10.10;99.90;;;;;;4960391;28;20089;-83
2023/05/03 07:51:37;;;;;;;4.13;0.45;;;8.90;99.90;;;;;;4954253;28;20063;-84
2023/05/03 07:54:03;;;;;;;3.33;1.05;;;9.40;99.90;;;;;;4966736;28;20051;-84
2023/05/03 07:56:29;;;;;;;3.53;0.63;;;9.90;99.90;;;;;;4958017;28;20051;-86
2023/05/03 07:59:02;;;;;;;2.63;0.55;;;9.50;99.90;;;;;;4966561;28;20065;-91
2023/05/03 08:01:28;;;;;;;4.05;0.50;;;8.10;99.90;;;;;;4994564;28;20061;-85
2023/05/03 08:03:54;;;;;;;2.50;0.50;;;;;;;;;;4954026;28;20550;-89
2023/05/03 08:06:49;;;;;;;1.05;0.32;;;9.60;99.90;;;;;;4982558;28;20051;-89
2023/05/03 08:09:32;;;;;;;4.28;0.55;;;;;;;;;;4984171;28;20047;-88
2023/05/03 08:12:16;;;;;;;2.25;0.30;;;9.60;99.90;;;;;;4965449;28;20053;-87
2023/05/03 08:14:45;;;;;;;2.92;0.50;;;;;;;;;;4975881;28;20487;-88
2023/05/03 08:18:41;;;;;;;3.33;0.30;;;9.60;99.90;;;;;;4952826;28;20118;-87
2023/05/03 09:36:10;;;;;;;1.13;0.40;;;10.30;99.90;;;;;;4959438;28;20169;-84
2023/05/03 09:38:36;;;;;;;1.73;0.40;;;10.30;99.90;;;;;;4980621;28;20086;-86
2023/05/03 09:41:06;;;;;;;4.68;0.50;;;12.60;99.90;;;;;;4948138;28;20467;-86
2023/05/03 09:43:51;;;;;;;2.35;0.50;;;10.30;99.90;;;;;;4961604;28;20038;-88
2023/05/03 09:46:19;;;;;;;3.78;0.63;;;10.30;99.90;;;;;;4951793;28;20043;-86
2023/05/03 09:48:49;;;;;;;2.80;0.88;;;10.80;99.90;;;;;;4951334;28;20106;-86
2023/05/03 09:51:15;;;;;;;2.13;0.40;;;9.30;99.90;;;;;;4959271;28;20047;-86
2023/05/03 09:53:42;;;;;;;3.13;0.30;;;12.30;99.90;;;;;;4967028;28;20050;-90
2023/05/03 09:56:12;;;;;;;2.13;0.32;;;12.50;99.90;;;;;;4970104;28;20054;-88
2023/05/03 09:58:39;;;;;;;3.45;0.40;;;10.50;99.90;;;;;;4948148;28;20055;-87
2023/05/03 10:01:06;;;;;;;2.22;0.40;;;;;;;;;;4941996;28;20408;-87
2023/05/03 10:03:42;;;;;;;3.88;0.45;;;10.40;99.90;;;;;;4951352;28;20063;-86
2023/05/03 10:06:27;;;;;;;7.07;0.70;;;10.30;99.90;;;;;;4956016;28;20063;-87
2023/05/03 10:09:15;;;;;;;3.55;0.82;;;11.70;99.90;;;;;;4952552;28;20135;-90
2023/05/03 10:11:46;;;;;;;1.65;0.35;;;10.50;99.90;;;;;;4947625;28;20164;-88
2023/05/03 10:14:13;;;;;;;1.88;0.32;;;11.00;99.90;;;;;;4969038;28;20477;-85
2023/05/03 10:16:45;;;;;;;4.00;0.55;;;10.70;99.90;;;;;;4963780;28;20054;-85
2023/05/03 10:19:52;;;;;;;7.82;0.57;;;11.00;99.90;;;;;;4960283;28;20082;-88
2023/05/03 10:22:31;;;;;;;3.85;0.80;;;10.80;99.90;;;;;;4956519;28;20086;-90
2023/05/03 10:25:01;;;;;;;2.58;0.38;;;11.30;99.90;;;;;;4964521;28;20082;-88
2023/05/03 10:27:50;;;;;;;3.42;0.85;;;12.10;99.90;;;;;;4952161;28;20050;-90
2023/05/03 10:30:32;;;;;;;1.52;0.38;;;11.50;99.90;;;;;;4942792;28;20525;-89
2023/05/03 10:33:45;;;;;;;2.50;0.35;;;9.80;99.90;;;;;;4955628;28;20046;-88
2023/05/03 10:41:02;;;;;;;1.67;0.73;;;11.30;99.90;;;;;;4941078;28;20442;-90
2023/05/03 10:44:24;;;;;;;2.35;0.32;;;11.40;99.90;;;;;;4901570;28;20542;-88
2023/05/03 10:46:52;;;;;;;2.83;0.50;;;11.40;99.90;;;;;;4930619;28;20521;-84
2023/05/03 10:49:22;;;;;;;5.38;0.52;;;11.50;99.90;;;;;;4962779;28;20043;-84
2023/05/03 10:51:48;;;;;;;1.42;0.60;;;11.60;99.90;;;;;;4959251;28;20059;-84
2023/05/03 10:54:15;;;;;;;4.95;0.65;;;11.50;99.90;;;;;;4960371;28;20141;-86
2023/05/03 10:56:54;;;;;;;1.08;0.30;;;12.80;99.90;;;;;;4958351;28;20063;-89
2023/05/03 10:59:23;;;;;;;4.75;0.70;;;11.50;99.90;;;;;;4975624;28;20054;-90
2023/05/03 11:01:52;;;;;;;1.92;0.50;;;12.50;99.90;;;;;;4957554;28;20044;-80
2023/05/03 11:04:40;;;;;;;3.67;1.05;;;11.60;99.90;;;;;;4983959;28;20086;-93
2023/05/03 11:07:12;;;;;;;2.15;0.57;;;11.60;99.90;;;;;;4985019;28;20078;-89
2023/05/03 11:09:45;;;;;;;4.60;0.90;;;11.60;99.90;;;;;;4977012;28;20058;-87
2023/05/03 11:12:37;;;;;;;4.70;0.90;;;10.80;99.90;;;;;;4995163;28;20128;-92
2023/05/03 11:15:05;;;;;;;3.03;0.50;;;12.10;99.90;;;;;;4958402;28;20240;-83
2023/05/03 11:17:42;;;;;;;2.83;0.57;;;11.80;99.90;;;;;;4966994;28;20118;-85
2023/05/03 11:20:20;;;;;;;2.25;0.55;;;11.80;99.90;;;;;;4959346;28;20081;-83
2023/05/03 11:22:49;;;;;;;6.03;0.75;;;11.10;99.90;;;;;;4981491;28;20051;-84
2023/05/03 11:25:15;;;;;;;2.67;0.70;;;11.90;99.90;;;;;;4980944;28;20062;-85
2023/05/03 11:27:41;;;;;;;1.58;0.60;;;12.10;99.90;;;;;;4964434;28;20496;-80
2023/05/03 11:30:09;;;;;;;1.83;0.50;;;12.10;99.90;;;;;;4968254;28;20063;-84
2023/05/03 11:32:36;;;;;;;2.22;0.57;;;12.10;99.90;;;;;;4977277;28;20047;-87
2023/05/03 11:35:06;;;;;;;2.53;0.77;;;12.20;99.90;;;;;;4964504;28;20055;-87
2023/05/03 11:37:50;;;;;;;3.47;0.40;;;12.20;99.90;;;;;;4980687;28;20047;-87
2023/05/03 11:40:17;;;;;;;3.85;0.60;;;12.30;99.90;;;;;;4978623;28;20066;-83
2023/05/03 11:42:59;;;;;;;4.13;0.80;;;14.00;99.90;;;;;;4979191;28;20047;-90
2023/05/03 11:45:26;;;;;;;2.00;0.65;;;12.50;99.90;;;;;;4976050;28;20448;-90
2023/05/03 11:47:52;;;;;;;3.00;0.40;;;12.80;99.90;;;;;;4961351;28;20100;-83
2023/05/03 11:50:25;;;;;;;2.20;0.60;;;13.00;99.90;;;;;;4992038;28;20070;-86
2023/05/03 11:52:51;;;;;;;4.70;0.68;;;13.50;99.90;;;;;;4982973;28;20086;-89
2023/05/03 11:55:17;;;;;;;3.28;0.40;;;14.50;99.90;;;;;;4974596;28;20055;-87
2023/05/03 11:57:44;;;;;;;1.05;0.57;;;13.50;99.90;;;;;;4973039;28;20050;-87
2023/05/03 12:00:15;;;;;;;3.80;0.55;;;13.30;99.90;;;;;;4969626;28;20078;-83
2023/05/03 12:02:46;;;;;;;5.07;0.50;;;13.40;99.90;;;;;;4977548;28;20403;-83
2023/05/03 12:05:12;;;;;;;3.17;0.68;;;13.50;99.90;;;;;;4960354;28;20061;-89
2023/05/03 12:07:38;;;;;;;1.27;0.55;;;13.70;99.90;;;;;;4966865;28;20055;-90
2023/05/03 12:10:15;;;;;;;4.03;0.80;;;14.00;99.90;;;;;;4964755;28;20392;-93
2023/05/03 12:12:55;;;;;;;3.58;0.45;;;15.80;99.90;;;;;;4965805;28;20051;-85
2023/05/03 12:15:34;;;;;;;3.35;0.40;;;14.40;99.90;;;;;;4980311;28;20058;-85
2023/05/03 12:18:02;;;;;;;1.67;0.60;;;14.40;99.90;;;;;;4958433;28;20047;-87
2023/05/03 12:20:30;;;;;;;2.33;0.43;;;14.20;99.90;;;;;;4951117;28;20679;-88
2023/05/03 12:23:14;;;;;;;;;;;;;;;;;;;;;
2023/05/03 12:25:52;;;;;;;7.55;0.60;;;16.50;99.90;;;;;;4977888;28;20567;-83
2023/05/03 12:28:24;;;;;;;5.68;0.93;;;16.00;99.90;;;;;;4951508;28;20046;-88
2023/05/03 12:30:51;;;;;;;1.52;0.40;;;15.00;99.90;;;;;;4965842;28;20059;-86
2023/05/03 12:33:18;;;;;;;7.68;0.50;;;16.10;99.90;;;;;;4945762;28;20043;-86
2023/05/03 12:36:04;;;;;;;2.60;0.45;;;17.40;99.90;;;;;;4960090;28;20105;-86
2023/05/03 12:38:30;;;;;;;2.67;0.63;;;15.10;99.10;;;;;;4943972;28;20133;-88
2023/05/03 12:40:56;;;;;;;2.42;0.93;;;15.00;99.30;;;;;;4938166;28;20067;-85
2023/05/03 12:43:22;;;;;;;4.40;1.02;;;17.00;99.80;;;;;;4957096;28;20055;-83
2023/05/03 12:45:53;;;;;;;3.40;0.85;;;15.10;98.80;;;;;;4962510;28;20047;-87
2023/05/03 12:48:23;;;;;;;1.65;0.55;;;15.40;98.90;;;;;;4976933;28;20090;-86
2023/05/03 12:50:58;;;;;;;2.47;0.70;;;15.50;99.80;;;;;;4950539;28;20716;-85
2023/05/03 12:53:25;;;;;;;2.97;0.73;;;15.70;99.70;;;;;;4968654;28;20055;-86
2023/05/03 12:55:50;;;;;;;6.05;1.02;;;15.90;99.50;;;;;;4959851;28;20061;-86
2023/05/03 12:58:19;;;;;;;3.63;0.90;;;15.30;98.70;;;;;;4966571;28;20504;-85
2023/05/03 13:00:46;;;;;;;1.83;0.57;;;;;;;;;;4964523;28;20119;-87
2023/05/03 13:03:14;;;;;;;2.70;1.10;;;15.50;98.30;;;;;;4956898;28;20046;-87
2023/05/03 13:05:40;;;;;;;2.25;1.08;;;;;;;;;;4960846;28;20382;-87
2023/05/03 13:08:35;;;;;;;3.88;0.63;;;15.60;97.60;;;;;;4962625;28;20569;-85
2023/05/03 13:11:11;;;;;;;3.05;0.55;;;16.00;97.40;;;;;;4954852;28;20078;-88
2023/05/03 13:28:42;;;;;;;24.10;16.73;;;16.50;96.40;;;;;;4955717;28;20050;-85
2023/05/03 13:58:28;;;;;;;3.58;1.00;;;16.70;95.10;;;;;;4856010;29;20382;-84
2023/05/03 14:06:00;;;;;;;4.63;0.70;;;16.80;95.20;;;;;;4901949;29;20055;-84
2023/05/03 14:13:06;;;;;;;3.70;0.80;;;17.00;94.30;;;;;;4861567;29;20094;-88
2023/05/03 14:20:35;;;;;;;2.05;0.85;;;17.40;94.50;;;;;;4776599;29;20088;-88
2023/05/03 14:28:13;;;;;;;4.10;0.70;;;16.70;94.30;;;;;;4794210;29;20152;-88
2023/05/03 14:31:24;;;;;;;3.63;0.68;;;16.80;94.30;;;;;;4769154;29;20178;-81
2023/05/03 14:33:51;;;;;;;3.47;0.93;;;16.80;94.20;;;;;;4789028;29;20080;-81
2023/05/03 14:36:17;;;;;;;2.47;0.95;;;16.40;94.20;;;;;;4909624;29;20053;-84
2023/05/03 14:38:45;;;;;;;7.20;1.08;;;17.60;94.60;;;;;;4894176;29;20063;-86
2023/05/03 14:41:11;;;;;;;4.03;1.00;;;16.70;94.80;;;;;;4918109;29;20133;-85
2023/05/03 14:43:37;;;;;;;1.95;0.90;;;18.60;95.30;;;;;;4923367;29;20063;-85
2023/05/03 14:46:03;;;;;;;4.82;0.90;;;16.20;95.30;;;;;;4902416;29;20083;-86
2023/05/03 14:48:30;;;;;;;2.03;1.30;;;15.90;94.50;;;;;;4923750;29;20063;-87
2023/05/03 14:50:56;;;;;;;5.85;1.33;;;17.60;95.30;;;;;;4901974;29;20079;-87
2023/05/03 14:53:22;;;;;;;2.92;0.88;;;15.10;95.80;;;;;;4907731;29;20128;-86
2023/05/03 14:55:48;;;;;;;2.25;0.90;;;;;;;;;;4896707;29;20139;-87
2023/05/03 14:58:14;;;;;;;4.43;0.90;;;15.80;94.20;;;;;;4924723;29;20063;-86
2023/05/03 15:00:40;;;;;;;2.47;1.10;;;14.30;94.20;;;;;;4927012;29;20063;-86
2023/05/03 15:03:10;;;;;;;2.33;0.80;;;18.30;95.00;;;;;;4987469;28;20087;-85
2023/05/03 15:05:42;;;;;;;4.50;1.00;;;15.80;94.50;;;;;;4967184;28;20050;-87
2023/05/03 15:08:08;;;;;;;2.05;1.00;;;17.00;94.20;;;;;;4962398;28;20092;-87
2023/05/03 15:10:38;;;;;;;4.50;0.82;;;15.70;94.20;;;;;;4964217;28;20448;-88
2023/05/03 15:13:05;;;;;;;2.63;1.00;;;;;;;;;;4961942;28;20051;-83
2023/05/03 15:15:30;;;;;;;1.95;1.00;;;15.70;94.50;;;;;;4958172;28;20791;-85
2023/05/03 15:17:56;;;;;;;6.60;1.23;;;15.80;94.90;;;;;;4985520;28;20141;-83
2023/05/03 15:20:24;;;;;;;4.28;1.02;;;17.30;95.30;;;;;;4963991;28;20047;-81
2023/05/03 15:22:50;;;;;;;7.45;0.90;;;15.70;95.00;;;;;;4939202;28;20054;-84
2023/05/03 15:25:15;;;;;;;3.95;0.82;;;15.50;94.90;;;;;;4973165;28;20062;-82
2023/05/03 15:27:41;;;;;;;28.20;1.48;;;15.50;94.90;;;;;;4973860;28;20050;-83
2023/05/03 15:30:07;;;;;;;2.70;0.90;;;15.40;94.70;;;;;;4969858;28;20062;-83
2023/05/03 15:32:33;;;;;;;3.90;1.23;;;15.40;94.90;;;;;;4940034;28;20479;-83